createdAt,value
2019-03-12T00:00:27.602Z,80.50
2019-03-12T00:02:55.957Z,80.60
2019-03-12T00:05:24.253Z,80.50
2019-03-12T00:07:52.539Z,80.70
2019-03-12T00:10:21.299Z,80.80
2019-03-12T00:12:49.698Z,80.90
2019-03-12T00:15:18.031Z,81.00
2019-03-12T00:17:46.319Z,81.90
2019-03-12T00:20:15.101Z,81.00
2019-03-12T00:22:43.389Z,81.10
2019-03-12T00:25:11.679Z,81.10
2019-03-12T00:27:39.984Z,81.00
2019-03-12T00:30:10.006Z,81.00
2019-03-12T00:32:38.558Z,81.10
2019-03-12T00:35:08.169Z,81.10
2019-03-12T00:37:36.454Z,81.00
2019-03-12T00:40:08.182Z,81.00
2019-03-12T00:42:36.467Z,81.10
2019-03-12T00:45:08.561Z,80.90
2019-03-12T00:47:36.855Z,80.90
2019-03-12T00:50:07.862Z,80.80
2019-03-12T00:52:36.203Z,81.00
2019-03-12T00:55:06.707Z,80.70
2019-03-12T00:57:35.012Z,80.80
2019-03-12T01:00:05.408Z,80.60
2019-03-12T01:02:33.828Z,80.60
2019-03-12T01:05:02.146Z,80.40
2019-03-12T01:07:30.529Z,80.30
2019-03-12T01:09:58.883Z,80.20
2019-03-12T01:12:27.183Z,80.10
2019-03-12T01:14:55.988Z,80.00
2019-03-12T01:17:24.299Z,79.90
2019-03-12T01:19:52.940Z,79.80
2019-03-12T01:22:21.389Z,79.70
2019-03-12T01:24:49.661Z,79.60
2019-03-12T01:27:17.966Z,79.50
2019-03-12T01:29:46.272Z,79.50
2019-03-12T01:32:16.250Z,79.50
2019-03-12T01:34:46.267Z,79.50
2019-03-12T01:37:14.653Z,79.50
2019-03-12T01:39:43.034Z,79.30
2019-03-12T01:42:11.339Z,80.10
2019-03-12T01:44:39.892Z,79.20
2019-03-12T01:47:08.367Z,79.30
2019-03-12T01:49:36.665Z,79.30
2019-03-12T01:52:05.174Z,79.50
2019-03-12T01:54:33.534Z,79.50
2019-03-12T01:57:01.832Z,79.60
2019-03-12T01:59:30.188Z,79.70
2019-03-12T02:01:58.914Z,79.80
2019-03-12T02:04:27.220Z,79.80
2019-03-12T02:06:58.201Z,80.00
2019-03-12T02:09:27.096Z,80.10
2019-03-12T02:11:55.481Z,80.10
2019-03-12T02:14:25.897Z,80.30
2019-03-12T02:16:54.268Z,80.30
2019-03-12T02:19:22.538Z,80.20
2019-03-12T02:21:50.822Z,80.20
2019-03-12T02:24:19.268Z,80.20
2019-03-12T02:26:47.563Z,80.20
2019-03-12T02:29:15.913Z,80.30
2019-03-12T02:31:44.397Z,80.30
2019-03-12T02:34:12.820Z,80.20
2019-03-12T02:36:41.459Z,80.20
2019-03-12T02:39:10.138Z,80.20
2019-03-12T02:41:38.442Z,80.20
2019-03-12T02:44:06.804Z,80.20
2019-03-12T02:46:35.168Z,80.30
2019-03-12T02:49:03.476Z,80.40
2019-03-12T02:51:31.815Z,80.40
2019-03-12T02:54:00.155Z,80.30
2019-03-12T02:56:28.442Z,80.20
2019-03-12T02:58:56.819Z,80.30
2019-03-12T03:01:25.095Z,80.30
2019-03-12T03:03:53.455Z,80.40
2019-03-12T03:06:32.314Z,80.40
2019-03-12T03:09:00.611Z,80.50
2019-03-12T03:11:28.943Z,80.50
2019-03-12T03:13:57.259Z,80.50
2019-03-12T03:16:25.614Z,80.60
2019-03-12T03:18:55.199Z,80.70
2019-03-12T03:21:23.478Z,80.90
2019-03-12T03:23:51.828Z,80.80
2019-03-12T03:26:20.196Z,80.90
2019-03-12T03:28:48.483Z,81.00
2019-03-12T03:31:16.786Z,81.10
2019-03-12T03:33:45.137Z,81.10
2019-03-12T03:36:13.872Z,81.20
2019-03-12T03:38:42.200Z,81.20
2019-03-12T03:41:10.479Z,82.10
2019-03-12T03:43:38.875Z,81.50
2019-03-12T03:46:07.222Z,81.50
2019-03-12T03:48:35.533Z,81.50
2019-03-12T03:51:04.470Z,81.50
2019-03-12T03:53:32.911Z,81.70
2019-03-12T03:56:01.185Z,81.70
2019-03-12T03:58:29.484Z,81.70
2019-03-12T04:00:57.888Z,81.80
2019-03-12T04:03:26.249Z,81.80
2019-03-12T04:05:54.612Z,82.60
2019-03-12T04:08:22.969Z,81.90
2019-03-12T04:10:51.311Z,81.90
2019-03-12T04:13:19.619Z,82.00
2019-03-12T04:15:47.997Z,82.00
2019-03-12T04:18:16.297Z,82.10
2019-03-12T04:20:44.723Z,82.00
2019-03-12T04:23:15.832Z,82.10
2019-03-12T04:25:43.044Z,82.20
2019-03-12T04:28:11.416Z,82.30
2019-03-12T04:30:39.777Z,82.40
2019-03-12T04:33:28.103Z,82.40
2019-03-12T04:35:56.389Z,82.50
2019-03-12T04:38:24.676Z,82.50
2019-03-12T04:40:52.974Z,83.10
2019-03-12T04:43:21.279Z,82.40
2019-03-12T04:45:49.553Z,82.50
2019-03-12T04:48:17.859Z,82.60
2019-03-12T04:50:46.133Z,82.70
2019-03-12T04:53:14.413Z,82.80
2019-03-12T04:55:42.721Z,83.80
2019-03-12T04:58:11.004Z,82.90
2019-03-12T05:00:39.307Z,83.00
2019-03-12T05:03:07.619Z,82.90
2019-03-12T05:05:35.906Z,83.00
2019-03-12T05:08:04.612Z,83.10
2019-03-12T05:10:32.920Z,83.20
2019-03-12T05:13:01.300Z,83.10
2019-03-12T05:15:29.737Z,83.20
2019-03-12T05:17:58.405Z,83.20
2019-03-12T05:20:27.045Z,83.20
2019-03-12T05:22:55.333Z,83.20
2019-03-12T05:25:23.641Z,83.20
2019-03-12T05:27:52.177Z,83.20
2019-03-12T05:30:21.022Z,83.30
2019-03-12T05:32:49.396Z,83.10
2019-03-12T05:35:17.742Z,83.20
2019-03-12T05:37:46.359Z,83.10
2019-03-12T05:40:16.581Z,83.10
2019-03-12T05:42:44.861Z,82.90
2019-03-12T05:45:17.529Z,82.80
2019-03-12T05:47:45.858Z,82.90
2019-03-12T05:50:15.793Z,82.80
2019-03-12T05:52:44.446Z,83.00
2019-03-12T05:55:16.341Z,83.10
2019-03-12T05:57:44.813Z,83.10
2019-03-12T06:00:21.682Z,83.20
2019-03-12T06:02:50.246Z,83.20
2019-03-12T06:05:18.822Z,83.30
2019-03-12T06:07:47.178Z,83.40
2019-03-12T06:10:16.326Z,83.50
2019-03-12T06:12:44.701Z,83.50
2019-03-12T06:15:15.569Z,83.70
2019-03-12T06:17:43.931Z,83.70
2019-03-12T06:20:16.604Z,83.70
2019-03-12T06:22:44.907Z,84.60
2019-03-12T06:25:14.144Z,83.80
2019-03-12T06:27:42.525Z,83.90
2019-03-12T06:30:18.446Z,83.90
2019-03-12T06:32:48.555Z,83.90
2019-03-12T06:35:36.960Z,83.80
2019-03-12T06:38:07.099Z,83.90
2019-03-12T06:40:37.035Z,83.70
2019-03-12T06:43:15.565Z,83.60
2019-03-12T06:45:51.080Z,83.70
2019-03-12T06:48:23.606Z,83.60
2019-03-12T06:51:11.610Z,83.50
2019-03-12T06:53:56.606Z,83.50
2019-03-12T06:56:35.170Z,83.40
2019-03-12T06:59:08.081Z,83.30
2019-03-12T07:01:50.262Z,83.20
2019-03-12T07:04:32.424Z,83.20
2019-03-12T07:07:17.606Z,83.20
2019-03-12T07:09:53.246Z,83.10
2019-03-12T07:12:31.794Z,83.00
2019-03-12T07:15:16.515Z,83.00
2019-03-12T07:17:49.005Z,82.90
2019-03-12T07:20:19.012Z,82.80
2019-03-12T07:22:54.439Z,82.80
2019-03-12T07:28:25.546Z,82.80
2019-03-12T07:31:04.670Z,82.60
2019-03-12T07:33:37.341Z,82.60
2019-03-12T07:36:09.933Z,82.30
2019-03-12T07:38:42.541Z,82.30
2019-03-12T07:41:26.515Z,82.00
2019-03-12T07:43:52.375Z,82.00
2019-03-12T07:46:38.862Z,82.00
2019-03-12T07:49:27.448Z,81.30
2019-03-12T07:51:57.438Z,81.60
2019-03-12T07:54:33.367Z,81.50
2019-03-12T07:57:03.320Z,81.40
2019-03-12T07:59:42.269Z,81.30
2019-03-12T08:02:28.529Z,81.20
2019-03-12T08:04:58.483Z,80.90
2019-03-12T08:07:28.545Z,80.80
2019-03-12T08:10:16.430Z,80.70
2019-03-12T08:13:11.668Z,80.50
2019-03-12T08:15:41.674Z,80.40
2019-03-12T08:18:14.382Z,80.20
2019-03-12T08:20:44.373Z,80.00
2019-03-12T08:23:22.966Z,80.00
2019-03-12T08:25:53.229Z,79.70
2019-03-12T08:28:29.033Z,79.60
2019-03-12T08:31:01.915Z,79.60
2019-03-12T08:33:34.283Z,80.10
2019-03-12T08:36:18.595Z,79.10
2019-03-12T08:38:57.000Z,79.00
2019-03-12T08:41:42.010Z,78.70
2019-03-12T08:44:12.008Z,78.50
2019-03-12T08:46:42.284Z,78.40
2019-03-12T08:49:23.857Z,78.60
2019-03-12T08:51:56.624Z,78.30
2019-03-12T08:54:29.769Z,77.90
2019-03-12T08:57:02.415Z,77.70
2019-03-12T08:59:35.980Z,77.30
2019-03-12T09:02:18.038Z,77.20
2019-03-12T09:04:56.997Z,77.10
2019-03-12T09:07:38.871Z,76.90
2019-03-12T09:10:13.608Z,76.40
2019-03-12T09:12:46.024Z,76.00
2019-03-12T09:15:20.816Z,75.80
2019-03-12T09:17:50.768Z,75.60
2019-03-12T09:20:36.931Z,75.30
2019-03-12T09:23:10.013Z,75.20
2019-03-12T09:25:58.159Z,74.80
2019-03-12T09:28:28.191Z,74.60
2019-03-12T09:31:04.142Z,74.40
2019-03-12T09:33:50.495Z,74.00
2019-03-12T09:36:36.915Z,73.60
2019-03-12T09:39:13.219Z,73.60
2019-03-12T09:41:43.207Z,72.90
2019-03-12T09:44:15.665Z,72.60
2019-03-12T09:46:48.487Z,72.30
2019-03-12T09:49:34.515Z,71.70
2019-03-12T09:52:04.437Z,71.40
2019-03-12T09:54:39.848Z,71.20
2019-03-12T09:57:22.412Z,71.40
2019-03-12T09:59:55.105Z,71.10
2019-03-12T10:02:27.696Z,70.60
2019-03-12T10:05:15.411Z,71.00
2019-03-12T10:07:48.097Z,71.00
2019-03-12T10:10:28.342Z,71.00
2019-03-12T10:12:58.255Z,70.50
2019-03-12T10:15:44.150Z,70.40
2019-03-12T10:18:22.764Z,70.40
2019-03-12T10:20:52.713Z,70.20
2019-03-12T10:23:22.738Z,70.10
2019-03-12T10:26:07.565Z,70.10
2019-03-12T10:28:37.590Z,69.90
2019-03-12T10:31:25.393Z,69.80
2019-03-12T10:34:01.314Z,69.50
2019-03-12T10:36:37.212Z,69.60
2019-03-12T10:40:00.383Z,69.30
2019-03-12T10:42:37.596Z,69.00
2019-03-12T10:45:25.478Z,68.40
2019-03-12T10:48:00.987Z,68.40
2019-03-12T10:50:29.831Z,68.00
2019-03-12T10:52:58.209Z,67.90
2019-03-12T10:55:26.957Z,67.80
2019-03-12T10:57:55.321Z,67.30
2019-03-12T11:00:23.698Z,66.90
2019-03-12T11:02:51.981Z,66.70
2019-03-12T11:05:21.911Z,66.30
2019-03-12T11:07:50.210Z,66.00
2019-03-12T11:10:19.819Z,65.50
2019-03-12T11:12:48.175Z,65.60
2019-03-12T11:15:17.051Z,65.30
2019-03-12T11:17:50.094Z,64.20
2019-03-12T11:20:25.078Z,64.10
2019-03-12T11:22:53.717Z,63.80
2019-03-12T11:25:27.745Z,63.90
2019-03-12T11:27:52.293Z,63.40
2019-03-12T11:30:22.447Z,63.00
2019-03-12T11:32:50.776Z,62.70
2019-03-12T11:35:19.154Z,62.60
2019-03-12T11:37:47.535Z,62.10
2019-03-12T11:40:19.028Z,62.30
2019-03-12T11:42:47.489Z,61.80
2019-03-12T11:45:18.474Z,61.50
2019-03-12T11:47:45.916Z,61.50
2019-03-12T11:50:20.434Z,61.30
2019-03-12T11:52:55.594Z,61.20
2019-03-12T11:55:19.437Z,61.00
2019-03-12T11:57:48.554Z,60.70
2019-03-12T12:00:22.162Z,60.70
2019-03-12T12:02:59.849Z,60.50
2019-03-12T12:05:20.755Z,60.20
2019-03-12T12:07:49.381Z,60.50
2019-03-12T12:10:18.961Z,60.00
2019-03-12T12:12:47.295Z,60.00
2019-03-12T12:15:16.167Z,60.00
2019-03-12T12:17:44.448Z,59.70
2019-03-12T12:20:28.442Z,59.40
2019-03-12T12:22:46.340Z,59.10
2019-03-12T12:25:19.234Z,59.10
2019-03-12T12:27:47.618Z,59.20
2019-03-12T12:30:24.049Z,59.00
2019-03-12T12:32:52.332Z,58.90
2019-03-12T12:35:20.628Z,58.50
2019-03-12T12:37:49.083Z,58.80
2019-03-12T12:40:21.841Z,58.80
2019-03-12T12:42:51.845Z,58.60
2019-03-12T12:45:26.178Z,58.60
2019-03-12T12:47:54.536Z,58.50
2019-03-12T12:50:24.091Z,58.50
2019-03-12T12:52:52.388Z,58.40
2019-03-12T12:55:20.664Z,58.30
2019-03-12T12:57:49.290Z,58.30
2019-03-12T13:00:22.765Z,58.10
2019-03-12T13:02:51.070Z,58.00
2019-03-12T13:05:19.379Z,57.90
2019-03-12T13:07:47.660Z,57.90
2019-03-12T13:10:26.925Z,57.90
2019-03-12T13:12:55.279Z,57.70
2019-03-12T13:15:23.573Z,57.60
2019-03-12T13:17:51.865Z,57.70
2019-03-12T13:20:20.626Z,58.40
2019-03-12T13:22:49.210Z,57.50
2019-03-12T13:25:18.711Z,57.30
2019-03-12T13:27:46.994Z,57.10
2019-03-12T13:30:22.629Z,57.20
2019-03-12T13:32:51.030Z,57.20
2019-03-12T13:35:19.659Z,57.00
2019-03-12T13:37:49.029Z,56.80
2019-03-12T13:40:21.207Z,57.00
2019-03-12T13:42:50.354Z,56.90
2019-03-12T13:45:24.608Z,56.80
2019-03-12T13:47:53.588Z,56.90
2019-03-12T13:50:21.933Z,56.90
2019-03-12T13:52:50.294Z,56.90
2019-03-12T13:55:18.769Z,57.30
2019-03-12T13:57:47.425Z,56.60
2019-03-12T14:00:25.625Z,56.30
2019-03-12T14:02:54.288Z,56.10
2019-03-12T14:05:22.595Z,56.20
2019-03-12T14:07:50.890Z,56.00
2019-03-12T14:10:24.260Z,55.90
2019-03-12T14:12:53.296Z,55.90
2019-03-12T14:15:31.013Z,56.00
2019-03-12T14:17:59.869Z,55.90
2019-03-12T14:20:42.255Z,56.10
2019-03-12T14:23:13.666Z,55.60
2019-03-12T14:25:41.988Z,55.60
2019-03-12T14:28:10.375Z,55.90
2019-03-12T14:30:38.730Z,55.70
2019-03-12T14:33:07.013Z,55.70
2019-03-12T14:35:35.402Z,55.90
2019-03-12T14:38:04.325Z,55.80
2019-03-12T14:40:32.692Z,55.80
2019-03-12T14:43:00.984Z,55.40
2019-03-12T14:45:30.169Z,55.40
2019-03-12T14:47:58.456Z,55.30
2019-03-12T14:50:29.438Z,55.40
2019-03-12T14:53:12.439Z,55.40
2019-03-12T14:55:37.404Z,55.30
2019-03-12T14:58:05.798Z,55.40
2019-03-12T15:00:34.117Z,55.30
2019-03-12T15:03:02.422Z,55.30
2019-03-12T15:05:30.713Z,55.30
2019-03-12T15:07:59.041Z,55.30
2019-03-12T15:10:27.333Z,55.30
2019-03-12T15:12:55.666Z,55.40
2019-03-12T15:15:23.960Z,55.50
2019-03-12T15:17:52.321Z,55.40
2019-03-12T15:20:20.641Z,55.40
2019-03-12T15:22:49.117Z,55.30
2019-03-12T15:25:17.513Z,55.30
2019-03-12T15:27:45.861Z,55.30
2019-03-12T15:30:17.489Z,54.70
2019-03-12T15:32:45.857Z,55.50
2019-03-12T15:35:14.721Z,55.40
2019-03-12T15:37:43.403Z,55.30
2019-03-12T15:40:12.938Z,55.20
2019-03-12T15:42:41.411Z,55.10
2019-03-12T15:45:11.917Z,55.10
2019-03-12T15:47:40.283Z,55.00
2019-03-12T15:50:11.427Z,55.10
2019-03-12T15:52:39.906Z,55.10
2019-03-12T15:55:08.570Z,55.00
2019-03-12T15:57:36.855Z,55.10
2019-03-12T16:00:11.678Z,55.30
2019-03-12T16:02:39.965Z,55.30
2019-03-12T16:05:08.983Z,55.30
2019-03-12T16:07:37.364Z,55.50
2019-03-12T16:10:19.541Z,55.50
2019-03-12T16:12:47.500Z,55.50
2019-03-12T16:15:17.307Z,55.40
2019-03-12T16:17:45.592Z,55.50
2019-03-12T16:20:20.108Z,55.40
2019-03-12T16:22:48.417Z,55.50
2019-03-12T16:25:16.832Z,56.30
2019-03-12T16:27:45.201Z,55.60
2019-03-12T16:30:15.338Z,55.60
2019-03-12T16:32:43.678Z,55.70
2019-03-12T16:35:12.065Z,55.70
2019-03-12T16:37:40.394Z,55.70
2019-03-12T16:40:19.257Z,55.70
2019-03-12T16:42:47.609Z,56.60
2019-03-12T16:45:17.856Z,56.10
2019-03-12T16:47:46.142Z,56.10
2019-03-12T16:50:15.858Z,56.10
2019-03-12T16:52:44.238Z,56.30
2019-03-12T16:55:17.115Z,56.60
2019-03-12T16:57:45.666Z,56.60
2019-03-12T17:00:17.910Z,56.70
2019-03-12T17:02:46.268Z,57.00
2019-03-12T17:05:14.643Z,57.00
2019-03-12T17:07:43.070Z,57.00
2019-03-12T17:10:15.819Z,57.00
2019-03-12T17:12:46.113Z,57.20
2019-03-12T17:15:19.889Z,57.10
2019-03-12T17:17:48.258Z,57.20
2019-03-12T17:20:16.913Z,57.20
2019-03-12T17:22:45.207Z,57.50
2019-03-12T17:25:15.589Z,56.80
2019-03-12T17:27:43.973Z,56.70
2019-03-12T17:30:22.883Z,56.60
2019-03-12T17:32:51.211Z,56.50
2019-03-12T17:35:35.149Z,56.40
2019-03-12T17:38:03.511Z,56.30
2019-03-12T17:40:31.944Z,56.30
2019-03-12T17:43:00.357Z,56.10
2019-03-12T17:45:28.845Z,56.20
2019-03-12T17:47:57.203Z,56.00
2019-03-12T17:50:25.550Z,55.90
2019-03-12T17:52:53.866Z,56.10
2019-03-12T17:55:22.193Z,56.40
2019-03-12T17:57:51.179Z,56.50
2019-03-12T18:00:29.943Z,56.50
2019-03-12T18:02:58.337Z,56.60
2019-03-12T18:05:26.630Z,56.70
2019-03-12T18:07:54.920Z,56.80
2019-03-12T18:10:23.298Z,56.90
2019-03-12T18:12:51.630Z,57.10
2019-03-12T18:15:39.378Z,57.30
2019-03-12T18:18:07.882Z,57.60
2019-03-12T18:20:36.325Z,57.70
2019-03-12T18:23:05.542Z,57.80
2019-03-12T18:25:35.982Z,58.30
2019-03-12T18:28:05.662Z,58.50
2019-03-12T18:30:34.075Z,58.80
2019-03-12T18:33:02.428Z,59.00
2019-03-12T18:35:30.818Z,59.30
2019-03-12T18:37:59.159Z,59.60
2019-03-12T18:40:29.577Z,59.80
2019-03-12T18:42:58.127Z,60.20
2019-03-12T18:45:28.457Z,60.40
2019-03-12T18:47:58.631Z,60.80
2019-03-12T18:50:27.176Z,64.70
2019-03-12T18:52:55.532Z,63.30
2019-03-12T18:55:33.083Z,63.10
2019-03-12T18:58:02.371Z,63.10
2019-03-12T19:00:31.748Z,64.60
2019-03-12T19:03:00.230Z,63.90
2019-03-12T19:05:33.801Z,63.90
2019-03-12T19:08:02.110Z,63.90
2019-03-12T19:10:30.593Z,65.00
2019-03-12T19:12:58.949Z,64.30
2019-03-12T19:15:27.236Z,64.50
2019-03-12T19:17:55.621Z,64.70
2019-03-12T19:20:23.992Z,64.80
2019-03-12T19:22:57.416Z,65.30
2019-03-12T19:25:30.738Z,65.60
2019-03-12T19:28:00.447Z,65.70
2019-03-12T19:30:29.075Z,65.80
2019-03-12T19:33:05.166Z,66.40
2019-03-12T19:35:34.514Z,66.60
2019-03-12T19:38:03.925Z,67.30
2019-03-12T19:40:44.588Z,68.50
2019-03-12T19:43:12.991Z,69.20
2019-03-12T19:45:41.363Z,69.40
2019-03-12T19:48:09.650Z,70.10
2019-03-12T19:50:37.965Z,70.40
2019-03-12T19:53:06.821Z,69.90
2019-03-12T19:55:44.327Z,70.80
2019-03-12T19:58:12.658Z,71.50
2019-03-12T20:00:41.067Z,72.70
2019-03-12T20:03:13.365Z,73.10
2019-03-12T20:05:39.527Z,73.30
2019-03-12T20:08:07.903Z,72.90
2019-03-12T20:11:08.522Z,73.20
2019-03-12T20:14:09.200Z,73.40
2019-03-12T20:17:08.174Z,73.90
2019-03-12T20:19:53.948Z,73.90
2019-03-12T20:22:37.116Z,73.60
2019-03-12T20:25:17.655Z,73.30
2019-03-12T20:28:22.730Z,73.60
2019-03-12T20:31:14.416Z,74.00
2019-03-12T20:34:09.577Z,74.20
2019-03-12T20:37:04.182Z,73.50
2019-03-12T20:40:08.926Z,74.30
2019-03-12T20:42:55.311Z,75.00
2019-03-12T20:45:52.463Z,75.40
2019-03-12T20:48:49.625Z,76.00
2019-03-12T20:51:51.739Z,76.30
2019-03-12T20:54:43.298Z,76.70
2019-03-12T20:57:37.736Z,76.60
2019-03-12T21:00:42.608Z,76.20
2019-03-12T21:03:28.754Z,76.40
2019-03-12T21:06:28.978Z,76.20
2019-03-12T21:09:35.957Z,76.20
2019-03-12T21:12:36.375Z,76.50
2019-03-12T21:15:16.813Z,76.50
2019-03-12T21:17:59.882Z,76.70
2019-03-12T21:21:04.868Z,76.80
2019-03-12T21:24:01.330Z,76.80
2019-03-12T21:26:54.483Z,76.50
2019-03-12T21:29:42.480Z,76.90
2019-03-12T21:32:12.620Z,76.80
2019-03-12T21:34:41.138Z,76.80
2019-03-12T21:37:09.640Z,81.00
2019-03-12T21:39:37.962Z,79.30
2019-03-12T21:42:06.333Z,78.90
2019-03-12T21:44:35.060Z,78.50
2019-03-12T21:47:03.539Z,78.50
2019-03-12T21:49:31.908Z,78.30
2019-03-12T21:52:00.453Z,78.00
2019-03-12T21:54:29.134Z,77.90
2019-03-12T21:56:57.514Z,78.00
2019-03-12T21:59:25.931Z,78.00
2019-03-12T22:01:54.313Z,78.10
2019-03-12T22:04:22.697Z,78.20
2019-03-12T22:06:51.941Z,78.10
2019-03-12T22:09:20.315Z,78.10
2019-03-12T22:11:48.700Z,78.10
2019-03-12T22:14:17.210Z,78.40
2019-03-12T22:16:47.174Z,78.40
2019-03-12T22:19:15.572Z,78.30
2019-03-12T22:21:45.563Z,78.30
2019-03-12T22:24:15.572Z,78.20
2019-03-12T22:26:48.628Z,78.20
2019-03-12T22:29:16.915Z,78.10
2019-03-12T22:31:45.268Z,78.20
2019-03-12T22:34:13.585Z,78.30
2019-03-12T22:36:42.221Z,78.30
2019-03-12T22:39:10.570Z,78.30
2019-03-12T22:41:38.882Z,78.20
2019-03-12T22:44:07.257Z,79.10
2019-03-12T22:46:35.633Z,78.30
2019-03-12T22:49:04.621Z,78.20
2019-03-12T22:51:32.916Z,78.30
2019-03-12T22:54:01.225Z,78.20
2019-03-12T22:56:29.577Z,78.20
2019-03-12T22:58:58.267Z,78.10
2019-03-12T23:01:26.563Z,78.10
2019-03-12T23:03:54.855Z,78.10
2019-03-12T23:06:23.149Z,78.20
2019-03-12T23:08:51.443Z,78.10
2019-03-12T23:11:19.804Z,78.30
2019-03-12T23:13:48.242Z,78.30
2019-03-12T23:16:16.983Z,78.30
2019-03-12T23:18:45.309Z,78.00
2019-03-12T23:21:13.635Z,78.00
2019-03-12T23:23:41.910Z,78.00
2019-03-12T23:26:10.211Z,78.10
2019-03-12T23:28:38.514Z,78.10
2019-03-12T23:31:06.908Z,78.20
2019-03-12T23:33:35.225Z,78.30
2019-03-12T23:36:03.516Z,78.30
2019-03-12T23:38:31.963Z,78.50
2019-03-12T23:41:00.310Z,78.30
2019-03-12T23:43:28.589Z,78.40
2019-03-12T23:45:56.889Z,78.50
2019-03-12T23:48:25.526Z,78.50
2019-03-12T23:50:53.878Z,78.50
2019-03-12T23:53:22.188Z,78.50
2019-03-12T23:55:50.481Z,79.40
2019-03-12T23:58:18.757Z,78.50
